Highland Hills, Ohio
Current Conditions -  °F | °C
As of 12:53 PM on Thursday 29 Jan 2015 (Local Time) from KBKL Reporting Station
Unknown Precip Unknown Precip  
Wind Chill: 26°   Ceiling: 3900
Heat Index: 37°   Visibility: 10mi
Dew Point: 29°   Wind: 22mph
Humidity: 73%   Direction: 170°S
Pressure: 29.74"   Gusts: 30mph
Location:  41.4368°N, 81.5396°W
Report Text: KBKL 291753Z 17019G26KT 10SM UP OVC039 03/M02 A2974 RMK AO2 PK WND 18030/1740 RAB06E20UPB50 SLP077 P0000 60000 T00281017 10028 20000 58022
Loading
Personal Weather Stations






























Interactive Weather Map New forecast layout! Learn more

10-Day Weather Forecast

Advertisements
Track Severe Weather on mobile